sensor_id;sensor_type;location;lat;lon;timestamp;P1;durP1;ratioP1;P2;durP2;ratioP2
1785;SDS011;890;48.158;11.540;2023-08-01T00:02:05;3.27;;;2.70;;
1785;SDS011;890;48.158;11.540;2023-08-01T00:04:30;4.93;;;3.27;;
1785;SDS011;890;48.158;11.540;2023-08-01T00:06:56;3.40;;;2.67;;
1785;SDS011;890;48.158;11.540;2023-08-01T00:09:22;4.10;;;2.83;;
1785;SDS011;890;48.158;11.540;2023-08-01T00:11:47;2.97;;;2.60;;
1785;SDS011;890;48.158;11.540;2023-08-01T00:14:13;4.63;;;3.50;;
1785;SDS011;890;48.158;11.540;2023-08-01T00:16:38;4.40;;;2.83;;
1785;SDS011;890;48.158;11.540;2023-08-01T00:19:04;4.50;;;2.83;;
1785;SDS011;890;48.158;11.540;2023-08-01T00:21:29;3.73;;;2.83;;
1785;SDS011;890;48.158;11.540;2023-08-01T00:23:57;4.10;;;2.57;;
1785;SDS011;890;48.158;11.540;2023-08-01T00:26:22;4.20;;;2.87;;
1785;SDS011;890;48.158;11.540;2023-08-01T00:28:48;3.13;;;2.63;;
1785;SDS011;890;48.158;11.540;2023-08-01T00:31:14;3.70;;;2.63;;
1785;SDS011;890;48.158;11.540;2023-08-01T00:33:40;3.50;;;2.53;;
1785;SDS011;890;48.158;11.540;2023-08-01T00:36:05;3.80;;;2.97;;
1785;SDS011;890;48.158;11.540;2023-08-01T00:38:34;3.93;;;2.97;;
1785;SDS011;890;48.158;11.540;2023-08-01T00:41:00;2.60;;;2.40;;
1785;SDS011;890;48.158;11.540;2023-08-01T00:43:26;4.00;;;2.80;;
1785;SDS011;890;48.158;11.540;2023-08-01T00:45:51;3.20;;;2.80;;
1785;SDS011;890;48.158;11.540;2023-08-01T00:48:24;2.87;;;2.57;;
1785;SDS011;890;48.158;11.540;2023-08-01T00:50:50;3.60;;;3.30;;
1785;SDS011;890;48.158;11.540;2023-08-01T00:53:16;8.13;;;3.53;;
1785;SDS011;890;48.158;11.540;2023-08-01T00:55:43;3.00;;;2.80;;
1785;SDS011;890;48.158;11.540;2023-08-01T00:58:08;3.53;;;3.20;;
1785;SDS011;890;48.158;11.540;2023-08-01T01:00:34;4.10;;;2.93;;
1785;SDS011;890;48.158;11.540;2023-08-01T01:03:00;5.03;;;2.93;;
1785;SDS011;890;48.158;11.540;2023-08-01T01:05:26;3.90;;;3.07;;
1785;SDS011;890;48.158;11.540;2023-08-01T01:07:54;3.67;;;2.90;;
1785;SDS011;890;48.158;11.540;2023-08-01T01:10:20;3.97;;;2.90;;
1785;SDS011;890;48.158;11.540;2023-08-01T01:12:46;3.40;;;2.87;;
1785;SDS011;890;48.158;11.540;2023-08-01T01:15:12;3.43;;;3.00;;
1785;SDS011;890;48.158;11.540;2023-08-01T01:17:38;3.50;;;2.70;;
1785;SDS011;890;48.158;11.540;2023-08-01T01:20:03;3.87;;;3.20;;
1785;SDS011;890;48.158;11.540;2023-08-01T01:22:29;2.77;;;2.50;;
1785;SDS011;890;48.158;11.540;2023-08-01T01:24:55;4.07;;;3.10;;
1785;SDS011;890;48.158;11.540;2023-08-01T01:27:22;3.90;;;2.60;;
1785;SDS011;890;48.158;11.540;2023-08-01T01:29:48;3.63;;;2.60;;
1785;SDS011;890;48.158;11.540;2023-08-01T01:32:15;4.37;;;2.90;;
1785;SDS011;890;48.158;11.540;2023-08-01T01:34:41;3.50;;;2.73;;
1785;SDS011;890;48.158;11.540;2023-08-01T01:37:06;4.00;;;2.60;;
1785;SDS011;890;48.158;11.540;2023-08-01T01:39:32;2.90;;;2.67;;
1785;SDS011;890;48.158;11.540;2023-08-01T01:41:57;3.10;;;2.60;;
1785;SDS011;890;48.158;11.540;2023-08-01T01:44:23;3.23;;;2.87;;
1785;SDS011;890;48.158;11.540;2023-08-01T01:46:49;3.90;;;3.20;;
1785;SDS011;890;48.158;11.540;2023-08-01T01:49:14;3.70;;;2.77;;
1785;SDS011;890;48.158;11.540;2023-08-01T01:51:40;3.40;;;2.70;;
1785;SDS011;890;48.158;11.540;2023-08-01T01:54:05;4.33;;;3.07;;
1785;SDS011;890;48.158;11.540;2023-08-01T01:56:31;3.53;;;2.90;;
1785;SDS011;890;48.158;11.540;2023-08-01T02:02:09;4.00;;;3.00;;
1785;SDS011;890;48.158;11.540;2023-08-01T02:04:35;3.43;;;2.80;;
1785;SDS011;890;48.158;11.540;2023-08-01T02:07:00;4.20;;;3.10;;
1785;SDS011;890;48.158;11.540;2023-08-01T02:09:26;4.13;;;3.10;;
1785;SDS011;890;48.158;11.540;2023-08-01T02:11:52;5.23;;;3.00;;
1785;SDS011;890;48.158;11.540;2023-08-01T02:14:17;4.30;;;2.87;;
1785;SDS011;890;48.158;11.540;2023-08-01T02:16:43;4.13;;;2.97;;
1785;SDS011;890;48.158;11.540;2023-08-01T02:19:09;3.83;;;3.17;;
1785;SDS011;890;48.158;11.540;2023-08-01T02:21:34;4.90;;;3.37;;
1785;SDS011;890;48.158;11.540;2023-08-01T02:24:00;3.87;;;3.20;;
1785;SDS011;890;48.158;11.540;2023-08-01T02:26:25;3.30;;;2.60;;
1785;SDS011;890;48.158;11.540;2023-08-01T02:28:51;4.10;;;2.77;;
1785;SDS011;890;48.158;11.540;2023-08-01T02:31:17;4.23;;;3.20;;
1785;SDS011;890;48.158;11.540;2023-08-01T02:33:42;3.60;;;2.97;;
1785;SDS011;890;48.158;11.540;2023-08-01T02:36:08;3.10;;;2.80;;
1785;SDS011;890;48.158;11.540;2023-08-01T02:38:33;4.67;;;2.83;;
1785;SDS011;890;48.158;11.540;2023-08-01T02:40:59;3.40;;;2.83;;
1785;SDS011;890;48.158;11.540;2023-08-01T02:43:25;6.47;;;3.30;;
1785;SDS011;890;48.158;11.540;2023-08-01T02:45:50;4.50;;;2.90;;
1785;SDS011;890;48.158;11.540;2023-08-01T02:48:16;3.67;;;2.70;;
1785;SDS011;890;48.158;11.540;2023-08-01T02:50:41;3.33;;;3.03;;
1785;SDS011;890;48.158;11.540;2023-08-01T02:53:07;4.17;;;3.47;;
1785;SDS011;890;48.158;11.540;2023-08-01T02:55:33;4.30;;;2.97;;
1785;SDS011;890;48.158;11.540;2023-08-01T02:57:58;5.90;;;3.33;;
1785;SDS011;890;48.158;11.540;2023-08-01T03:00:24;3.57;;;3.17;;
1785;SDS011;890;48.158;11.540;2023-08-01T03:02:50;3.13;;;2.70;;
1785;SDS011;890;48.158;11.540;2023-08-01T03:05:16;4.37;;;3.27;;
1785;SDS011;890;48.158;11.540;2023-08-01T03:07:42;5.30;;;3.07;;
1785;SDS011;890;48.158;11.540;2023-08-01T03:10:08;3.63;;;3.07;;
1785;SDS011;890;48.158;11.540;2023-08-01T03:12:34;3.20;;;2.90;;
1785;SDS011;890;48.158;11.540;2023-08-01T03:15:00;4.13;;;3.10;;
1785;SDS011;890;48.158;11.540;2023-08-01T03:17:26;4.70;;;3.47;;
1785;SDS011;890;48.158;11.540;2023-08-01T03:19:51;3.73;;;3.20;;
1785;SDS011;890;48.158;11.540;2023-08-01T03:22:17;4.47;;;2.97;;
1785;SDS011;890;48.158;11.540;2023-08-01T03:24:42;4.77;;;3.10;;
1785;SDS011;890;48.158;11.540;2023-08-01T03:27:08;4.03;;;2.90;;
1785;SDS011;890;48.158;11.540;2023-08-01T03:29:33;3.80;;;3.17;;
1785;SDS011;890;48.158;11.540;2023-08-01T03:31:59;4.57;;;3.33;;
1785;SDS011;890;48.158;11.540;2023-08-01T03:34:25;4.00;;;3.53;;
1785;SDS011;890;48.158;11.540;2023-08-01T03:36:51;5.20;;;3.60;;
1785;SDS011;890;48.158;11.540;2023-08-01T03:39:17;4.63;;;3.10;;
1785;SDS011;890;48.158;11.540;2023-08-01T03:41:43;4.23;;;3.30;;
1785;SDS011;890;48.158;11.540;2023-08-01T03:44:08;3.83;;;3.43;;
1785;SDS011;890;48.158;11.540;2023-08-01T03:46:34;3.90;;;3.50;;
1785;SDS011;890;48.158;11.540;2023-08-01T03:49:00;4.30;;;3.07;;
1785;SDS011;890;48.158;11.540;2023-08-01T03:51:25;5.27;;;4.13;;
1785;SDS011;890;48.158;11.540;2023-08-01T03:53:51;6.03;;;3.60;;
1785;SDS011;890;48.158;11.540;2023-08-01T03:56:16;5.10;;;4.30;;
1785;SDS011;890;48.158;11.540;2023-08-01T03:58:42;6.63;;;3.80;;
1785;SDS011;890;48.158;11.540;2023-08-01T04:01:07;4.10;;;3.70;;
1785;SDS011;890;48.158;11.540;2023-08-01T04:03:33;6.33;;;3.80;;
1785;SDS011;890;48.158;11.540;2023-08-01T04:05:59;5.23;;;4.60;;
1785;SDS011;890;48.158;11.540;2023-08-01T04:08:24;6.27;;;4.13;;
1785;SDS011;890;48.158;11.540;2023-08-01T04:10:50;6.17;;;3.63;;
1785;SDS011;890;48.158;11.540;2023-08-01T04:13:15;6.90;;;4.37;;
1785;SDS011;890;48.158;11.540;2023-08-01T04:15:41;6.13;;;4.10;;
1785;SDS011;890;48.158;11.540;2023-08-01T04:18:07;5.27;;;4.20;;
1785;SDS011;890;48.158;11.540;2023-08-01T04:20:32;6.53;;;4.23;;
1785;SDS011;890;48.158;11.540;2023-08-01T04:22:58;4.97;;;4.47;;
1785;SDS011;890;48.158;11.540;2023-08-01T04:25:24;4.93;;;4.33;;
1785;SDS011;890;48.158;11.540;2023-08-01T04:27:51;4.70;;;4.30;;
1785;SDS011;890;48.158;11.540;2023-08-01T04:30:24;5.07;;;4.57;;
1785;SDS011;890;48.158;11.540;2023-08-01T04:32:49;5.87;;;4.40;;
1785;SDS011;890;48.158;11.540;2023-08-01T04:35:15;5.63;;;4.23;;
1785;SDS011;890;48.158;11.540;2023-08-01T04:37:41;6.10;;;4.63;;
1785;SDS011;890;48.158;11.540;2023-08-01T04:40:06;6.07;;;5.37;;
1785;SDS011;890;48.158;11.540;2023-08-01T04:42:32;5.43;;;4.60;;
1785;SDS011;890;48.158;11.540;2023-08-01T04:44:58;5.00;;;4.50;;
1785;SDS011;890;48.158;11.540;2023-08-01T04:47:24;5.67;;;4.07;;
1785;SDS011;890;48.158;11.540;2023-08-01T04:49:49;5.63;;;5.13;;
1785;SDS011;890;48.158;11.540;2023-08-01T04:52:15;5.40;;;4.47;;
1785;SDS011;890;48.158;11.540;2023-08-01T04:54:40;7.77;;;4.10;;
1785;SDS011;890;48.158;11.540;2023-08-01T04:57:06;5.00;;;4.40;;
1785;SDS011;890;48.158;11.540;2023-08-01T04:59:31;5.10;;;4.60;;
1785;SDS011;890;48.158;11.540;2023-08-01T05:01:57;6.80;;;5.27;;
1785;SDS011;890;48.158;11.540;2023-08-01T05:04:23;6.20;;;4.53;;
1785;SDS011;890;48.158;11.540;2023-08-01T05:06:50;6.57;;;5.30;;
1785;SDS011;890;48.158;11.540;2023-08-01T05:09:15;6.37;;;4.63;;
1785;SDS011;890;48.158;11.540;2023-08-01T05:11:41;5.57;;;4.97;;
1785;SDS011;890;48.158;11.540;2023-08-01T05:14:06;5.37;;;4.87;;
1785;SDS011;890;48.158;11.540;2023-08-01T05:16:32;5.97;;;4.80;;
1785;SDS011;890;48.158;11.540;2023-08-01T05:18:57;6.53;;;4.50;;
1785;SDS011;890;48.158;11.540;2023-08-01T05:21:23;6.10;;;4.90;;
1785;SDS011;890;48.158;11.540;2023-08-01T05:23:49;6.00;;;4.60;;
1785;SDS011;890;48.158;11.540;2023-08-01T05:26:14;6.30;;;4.50;;
1785;SDS011;890;48.158;11.540;2023-08-01T05:28:40;7.67;;;5.20;;
1785;SDS011;890;48.158;11.540;2023-08-01T05:31:06;6.33;;;5.57;;
1785;SDS011;890;48.158;11.540;2023-08-01T05:33:31;5.80;;;4.30;;
1785;SDS011;890;48.158;11.540;2023-08-01T05:35:57;5.13;;;4.60;;
1785;SDS011;890;48.158;11.540;2023-08-01T05:38:23;5.13;;;4.53;;
1785;SDS011;890;48.158;11.540;2023-08-01T05:40:48;7.50;;;4.80;;
1785;SDS011;890;48.158;11.540;2023-08-01T05:43:14;7.93;;;5.07;;
1785;SDS011;890;48.158;11.540;2023-08-01T05:45:39;4.93;;;4.20;;
1785;SDS011;890;48.158;11.540;2023-08-01T05:48:05;4.80;;;4.20;;
1785;SDS011;890;48.158;11.540;2023-08-01T05:50:30;5.50;;;4.47;;
1785;SDS011;890;48.158;11.540;2023-08-01T05:52:56;6.20;;;4.80;;
1785;SDS011;890;48.158;11.540;2023-08-01T05:55:22;5.03;;;4.53;;
1785;SDS011;890;48.158;11.540;2023-08-01T05:57:47;6.90;;;4.80;;
1785;SDS011;890;48.158;11.540;2023-08-01T06:00:18;5.90;;;4.40;;
1785;SDS011;890;48.158;11.540;2023-08-01T06:02:47;5.10;;;4.07;;
1785;SDS011;890;48.158;11.540;2023-08-01T06:05:12;4.73;;;3.90;;
1785;SDS011;890;48.158;11.540;2023-08-01T06:07:38;5.20;;;4.00;;
1785;SDS011;890;48.158;11.540;2023-08-01T06:10:04;5.20;;;4.10;;
1785;SDS011;890;48.158;11.540;2023-08-01T06:12:30;6.60;;;4.60;;
1785;SDS011;890;48.158;11.540;2023-08-01T06:14:55;6.63;;;4.33;;
1785;SDS011;890;48.158;11.540;2023-08-01T06:17:21;5.17;;;3.90;;
1785;SDS011;890;48.158;11.540;2023-08-01T06:19:47;6.90;;;4.60;;
1785;SDS011;890;48.158;11.540;2023-08-01T06:22:13;6.77;;;4.13;;
1785;SDS011;890;48.158;11.540;2023-08-01T06:24:38;4.67;;;3.60;;
1785;SDS011;890;48.158;11.540;2023-08-01T06:27:04;6.03;;;4.80;;
1785;SDS011;890;48.158;11.540;2023-08-01T06:29:30;6.70;;;4.10;;
1785;SDS011;890;48.158;11.540;2023-08-01T06:31:56;5.47;;;4.20;;
1785;SDS011;890;48.158;11.540;2023-08-01T06:34:22;5.97;;;4.17;;
1785;SDS011;890;48.158;11.540;2023-08-01T06:36:47;4.60;;;4.03;;
1785;SDS011;890;48.158;11.540;2023-08-01T06:39:13;6.33;;;4.47;;
1785;SDS011;890;48.158;11.540;2023-08-01T06:41:39;6.63;;;4.07;;
1785;SDS011;890;48.158;11.540;2023-08-01T06:44:04;4.70;;;3.87;;
1785;SDS011;890;48.158;11.540;2023-08-01T06:46:30;4.30;;;3.43;;
1785;SDS011;890;48.158;11.540;2023-08-01T06:48:55;5.30;;;3.83;;
1785;SDS011;890;48.158;11.540;2023-08-01T06:51:21;4.90;;;3.50;;
1785;SDS011;890;48.158;11.540;2023-08-01T06:53:47;4.70;;;3.87;;
1785;SDS011;890;48.158;11.540;2023-08-01T06:56:13;4.87;;;3.50;;
1785;SDS011;890;48.158;11.540;2023-08-01T06:58:38;4.17;;;3.70;;
1785;SDS011;890;48.158;11.540;2023-08-01T07:01:04;3.57;;;3.23;;
1785;SDS011;890;48.158;11.540;2023-08-01T07:03:29;4.13;;;3.43;;
1785;SDS011;890;48.158;11.540;2023-08-01T07:05:55;6.13;;;3.40;;
1785;SDS011;890;48.158;11.540;2023-08-01T07:08:21;8.20;;;3.80;;
1785;SDS011;890;48.158;11.540;2023-08-01T07:10:46;5.20;;;3.47;;
1785;SDS011;890;48.158;11.540;2023-08-01T07:13:13;5.50;;;4.07;;
1785;SDS011;890;48.158;11.540;2023-08-01T07:15:38;6.10;;;3.40;;
1785;SDS011;890;48.158;11.540;2023-08-01T07:18:04;7.77;;;3.20;;
1785;SDS011;890;48.158;11.540;2023-08-01T07:20:29;11.37;;;4.07;;
1785;SDS011;890;48.158;11.540;2023-08-01T07:22:55;4.47;;;3.40;;
1785;SDS011;890;48.158;11.540;2023-08-01T07:25:20;5.43;;;3.73;;
1785;SDS011;890;48.158;11.540;2023-08-01T07:27:47;3.70;;;3.17;;
1785;SDS011;890;48.158;11.540;2023-08-01T07:30:12;5.20;;;3.30;;
1785;SDS011;890;48.158;11.540;2023-08-01T07:32:38;5.37;;;3.03;;
1785;SDS011;890;48.158;11.540;2023-08-01T07:35:04;4.20;;;3.43;;
1785;SDS011;890;48.158;11.540;2023-08-01T07:37:31;8.13;;;4.40;;
1785;SDS011;890;48.158;11.540;2023-08-01T07:39:58;3.60;;;2.93;;
1785;SDS011;890;48.158;11.540;2023-08-01T07:42:23;3.90;;;2.90;;
1785;SDS011;890;48.158;11.540;2023-08-01T07:44:49;6.90;;;3.90;;
1785;SDS011;890;48.158;11.540;2023-08-01T07:47:14;3.73;;;2.90;;
1785;SDS011;890;48.158;11.540;2023-08-01T07:49:40;4.90;;;2.70;;
1785;SDS011;890;48.158;11.540;2023-08-01T07:52:06;5.83;;;3.47;;
1785;SDS011;890;48.158;11.540;2023-08-01T07:54:32;6.10;;;3.20;;
1785;SDS011;890;48.158;11.540;2023-08-01T07:56:57;8.33;;;3.60;;
1785;SDS011;890;48.158;11.540;2023-08-01T07:59:23;4.03;;;3.20;;
1785;SDS011;890;48.158;11.540;2023-08-01T08:01:48;3.73;;;3.33;;
1785;SDS011;890;48.158;11.540;2023-08-01T08:04:14;4.97;;;3.57;;
1785;SDS011;890;48.158;11.540;2023-08-01T08:06:40;8.43;;;4.23;;
1785;SDS011;890;48.158;11.540;2023-08-01T08:09:06;5.10;;;2.90;;
1785;SDS011;890;48.158;11.540;2023-08-01T08:11:31;3.63;;;2.83;;
1785;SDS011;890;48.158;11.540;2023-08-01T08:13:58;4.37;;;2.80;;
1785;SDS011;890;48.158;11.540;2023-08-01T08:16:24;3.70;;;3.27;;
1785;SDS011;890;48.158;11.540;2023-08-01T08:18:50;2.73;;;2.50;;
1785;SDS011;890;48.158;11.540;2023-08-01T08:21:16;4.10;;;2.93;;
1785;SDS011;890;48.158;11.540;2023-08-01T08:23:41;7.53;;;3.90;;
1785;SDS011;890;48.158;11.540;2023-08-01T08:26:07;5.80;;;3.80;;
1785;SDS011;890;48.158;11.540;2023-08-01T08:28:33;4.70;;;2.80;;
1785;SDS011;890;48.158;11.540;2023-08-01T08:30:59;5.33;;;3.00;;
1785;SDS011;890;48.158;11.540;2023-08-01T08:33:29;4.70;;;3.90;;
1785;SDS011;890;48.158;11.540;2023-08-01T08:35:55;4.90;;;3.60;;
1785;SDS011;890;48.158;11.540;2023-08-01T08:38:21;3.90;;;2.70;;
1785;SDS011;890;48.158;11.540;2023-08-01T08:40:48;3.70;;;2.90;;
1785;SDS011;890;48.158;11.540;2023-08-01T08:43:23;4.37;;;2.90;;
1785;SDS011;890;48.158;11.540;2023-08-01T08:45:51;3.27;;;2.90;;
1785;SDS011;890;48.158;11.540;2023-08-01T08:48:21;3.60;;;2.97;;
1785;SDS011;890;48.158;11.540;2023-08-01T08:50:47;4.20;;;3.13;;
1785;SDS011;890;48.158;11.540;2023-08-01T08:53:14;3.47;;;2.83;;
1785;SDS011;890;48.158;11.540;2023-08-01T08:55:41;6.40;;;3.53;;
1785;SDS011;890;48.158;11.540;2023-08-01T08:58:07;6.33;;;3.70;;
1785;SDS011;890;48.158;11.540;2023-08-01T09:00:36;5.50;;;3.57;;
1785;SDS011;890;48.158;11.540;2023-08-01T09:03:03;4.73;;;3.53;;
1785;SDS011;890;48.158;11.540;2023-08-01T09:05:30;4.07;;;3.10;;
1785;SDS011;890;48.158;11.540;2023-08-01T09:07:59;7.00;;;3.23;;
1785;SDS011;890;48.158;11.540;2023-08-01T09:10:29;6.60;;;3.93;;
1785;SDS011;890;48.158;11.540;2023-08-01T09:12:56;18.30;;;9.53;;
1785;SDS011;890;48.158;11.540;2023-08-01T09:15:22;10.27;;;9.20;;
1785;SDS011;890;48.158;11.540;2023-08-01T09:17:51;9.10;;;4.27;;
1785;SDS011;890;48.158;11.540;2023-08-01T09:20:20;5.53;;;3.73;;
1785;SDS011;890;48.158;11.540;2023-08-01T09:22:46;4.93;;;4.07;;
1785;SDS011;890;48.158;11.540;2023-08-01T09:25:12;3.37;;;2.87;;
1785;SDS011;890;48.158;11.540;2023-08-01T09:27:38;4.53;;;3.10;;
1785;SDS011;890;48.158;11.540;2023-08-01T09:30:09;3.53;;;3.03;;
1785;SDS011;890;48.158;11.540;2023-08-01T09:32:36;4.50;;;4.03;;
1785;SDS011;890;48.158;11.540;2023-08-01T09:35:03;3.70;;;3.40;;
1785;SDS011;890;48.158;11.540;2023-08-01T09:37:38;3.70;;;3.00;;
1785;SDS011;890;48.158;11.540;2023-08-01T09:40:10;4.37;;;3.57;;
1785;SDS011;890;48.158;11.540;2023-08-01T09:42:38;3.67;;;3.07;;
1785;SDS011;890;48.158;11.540;2023-08-01T09:47:44;4.47;;;3.50;;
1785;SDS011;890;48.158;11.540;2023-08-01T09:50:10;6.90;;;3.70;;
1785;SDS011;890;48.158;11.540;2023-08-01T09:52:38;5.07;;;3.70;;
1785;SDS011;890;48.158;11.540;2023-08-01T09:55:04;4.90;;;3.20;;
1785;SDS011;890;48.158;11.540;2023-08-01T09:57:30;4.27;;;3.60;;
1785;SDS011;890;48.158;11.540;2023-08-01T09:59:57;3.73;;;3.13;;
1785;SDS011;890;48.158;11.540;2023-08-01T10:02:24;5.10;;;3.40;;
1785;SDS011;890;48.158;11.540;2023-08-01T10:04:52;3.33;;;2.70;;
1785;SDS011;890;48.158;11.540;2023-08-01T10:07:29;5.00;;;3.20;;
1785;SDS011;890;48.158;11.540;2023-08-01T10:09:57;4.10;;;2.80;;
1785;SDS011;890;48.158;11.540;2023-08-01T10:12:24;4.43;;;3.00;;
1785;SDS011;890;48.158;11.540;2023-08-01T10:14:51;3.60;;;2.70;;
1785;SDS011;890;48.158;11.540;2023-08-01T10:17:20;4.53;;;3.43;;
1785;SDS011;890;48.158;11.540;2023-08-01T10:19:50;3.30;;;2.60;;
1785;SDS011;890;48.158;11.540;2023-08-01T10:22:16;3.73;;;3.00;;
1785;SDS011;890;48.158;11.540;2023-08-01T10:24:43;4.40;;;2.90;;
1785;SDS011;890;48.158;11.540;2023-08-01T10:27:11;5.20;;;3.13;;
1785;SDS011;890;48.158;11.540;2023-08-01T10:29:38;4.93;;;3.50;;
1785;SDS011;890;48.158;11.540;2023-08-01T10:32:05;5.23;;;3.73;;
1785;SDS011;890;48.158;11.540;2023-08-01T10:34:32;7.80;;;3.60;;
1785;SDS011;890;48.158;11.540;2023-08-01T10:36:58;5.40;;;3.57;;
1785;SDS011;890;48.158;11.540;2023-08-01T10:39:25;6.00;;;4.53;;
1785;SDS011;890;48.158;11.540;2023-08-01T10:41:58;4.50;;;3.20;;
1785;SDS011;890;48.158;11.540;2023-08-01T10:44:28;4.90;;;4.27;;
1785;SDS011;890;48.158;11.540;2023-08-01T10:46:59;3.87;;;3.23;;
1785;SDS011;890;48.158;11.540;2023-08-01T10:52:02;4.57;;;3.43;;
1785;SDS011;890;48.158;11.540;2023-08-01T10:54:29;4.17;;;3.33;;
1785;SDS011;890;48.158;11.540;2023-08-01T10:56:56;4.20;;;3.40;;
1785;SDS011;890;48.158;11.540;2023-08-01T10:59:27;7.80;;;3.90;;
1785;SDS011;890;48.158;11.540;2023-08-01T11:01:53;4.50;;;3.47;;
1785;SDS011;890;48.158;11.540;2023-08-01T11:04:23;3.40;;;2.80;;
1785;SDS011;890;48.158;11.540;2023-08-01T11:06:50;3.90;;;3.30;;
1785;SDS011;890;48.158;11.540;2023-08-01T11:09:21;3.70;;;3.40;;
1785;SDS011;890;48.158;11.540;2023-08-01T11:11:52;3.60;;;3.20;;
1785;SDS011;890;48.158;11.540;2023-08-01T11:14:20;3.23;;;2.63;;
1785;SDS011;890;48.158;11.540;2023-08-01T11:16:47;3.43;;;2.97;;
1785;SDS011;890;48.158;11.540;2023-08-01T11:19:18;3.70;;;2.63;;
1785;SDS011;890;48.158;11.540;2023-08-01T11:21:45;2.23;;;2.00;;
1785;SDS011;890;48.158;11.540;2023-08-01T11:24:10;3.27;;;2.30;;
1785;SDS011;890;48.158;11.540;2023-08-01T11:26:39;2.47;;;2.00;;
1785;SDS011;890;48.158;11.540;2023-08-01T11:29:09;3.43;;;2.50;;
1785;SDS011;890;48.158;11.540;2023-08-01T11:31:36;2.60;;;1.90;;
1785;SDS011;890;48.158;11.540;2023-08-01T11:34:02;3.03;;;2.03;;
1785;SDS011;890;48.158;11.540;2023-08-01T11:36:28;2.60;;;2.30;;
1785;SDS011;890;48.158;11.540;2023-08-01T11:38:57;2.20;;;2.00;;
1785;SDS011;890;48.158;11.540;2023-08-01T11:41:27;2.20;;;2.00;;
1785;SDS011;890;48.158;11.540;2023-08-01T11:43:53;2.90;;;2.00;;
1785;SDS011;890;48.158;11.540;2023-08-01T11:46:22;4.60;;;2.50;;
1785;SDS011;890;48.158;11.540;2023-08-01T11:48:55;2.77;;;1.90;;
1785;SDS011;890;48.158;11.540;2023-08-01T11:51:21;5.27;;;2.80;;
1785;SDS011;890;48.158;11.540;2023-08-01T11:53:46;3.67;;;2.63;;
1785;SDS011;890;48.158;11.540;2023-08-01T11:56:23;3.40;;;2.63;;
1785;SDS011;890;48.158;11.540;2023-08-01T11:58:48;2.73;;;2.40;;
1785;SDS011;890;48.158;11.540;2023-08-01T12:01:14;2.83;;;2.53;;
1785;SDS011;890;48.158;11.540;2023-08-01T12:03:50;3.73;;;2.50;;
1785;SDS011;890;48.158;11.540;2023-08-01T12:06:20;3.60;;;2.63;;
1785;SDS011;890;48.158;11.540;2023-08-01T12:08:47;3.10;;;2.47;;
1785;SDS011;890;48.158;11.540;2023-08-01T12:11:24;3.37;;;2.80;;
1785;SDS011;890;48.158;11.540;2023-08-01T12:14:04;2.57;;;2.10;;
1785;SDS011;890;48.158;11.540;2023-08-01T12:16:36;3.20;;;2.53;;
1785;SDS011;890;48.158;11.540;2023-08-01T12:19:03;3.20;;;2.40;;
1785;SDS011;890;48.158;11.540;2023-08-01T12:21:29;3.07;;;2.40;;
1785;SDS011;890;48.158;11.540;2023-08-01T12:23:56;3.40;;;2.70;;
1785;SDS011;890;48.158;11.540;2023-08-01T12:26:22;3.60;;;2.53;;
1785;SDS011;890;48.158;11.540;2023-08-01T12:28:48;3.07;;;2.50;;
1785;SDS011;890;48.158;11.540;2023-08-01T12:31:20;2.80;;;2.30;;
1785;SDS011;890;48.158;11.540;2023-08-01T12:33:46;3.53;;;2.47;;
1785;SDS011;890;48.158;11.540;2023-08-01T12:36:12;3.23;;;2.60;;
1785;SDS011;890;48.158;11.540;2023-08-01T12:38:39;2.83;;;2.10;;
1785;SDS011;890;48.158;11.540;2023-08-01T12:41:05;2.50;;;2.03;;
1785;SDS011;890;48.158;11.540;2023-08-01T12:43:31;3.23;;;2.07;;
1785;SDS011;890;48.158;11.540;2023-08-01T12:45:57;2.97;;;2.50;;
1785;SDS011;890;48.158;11.540;2023-08-01T12:48:23;3.03;;;2.20;;
1785;SDS011;890;48.158;11.540;2023-08-01T12:50:52;4.30;;;2.50;;
1785;SDS011;890;48.158;11.540;2023-08-01T12:53:18;2.17;;;1.97;;
1785;SDS011;890;48.158;11.540;2023-08-01T12:55:44;4.23;;;2.57;;
1785;SDS011;890;48.158;11.540;2023-08-01T12:58:11;2.37;;;1.93;;
1785;SDS011;890;48.158;11.540;2023-08-01T13:00:38;3.10;;;2.10;;
1785;SDS011;890;48.158;11.540;2023-08-01T13:03:05;4.63;;;2.30;;
1785;SDS011;890;48.158;11.540;2023-08-01T13:05:36;2.50;;;2.30;;
1785;SDS011;890;48.158;11.540;2023-08-01T13:08:02;3.57;;;2.30;;
1785;SDS011;890;48.158;11.540;2023-08-01T13:10:32;2.57;;;1.80;;
1785;SDS011;890;48.158;11.540;2023-08-01T13:13:02;2.90;;;2.03;;
1785;SDS011;890;48.158;11.540;2023-08-01T13:15:28;4.47;;;2.13;;
1785;SDS011;890;48.158;11.540;2023-08-01T13:17:54;3.00;;;2.27;;
1785;SDS011;890;48.158;11.540;2023-08-01T13:20:20;3.03;;;2.13;;
1785;SDS011;890;48.158;11.540;2023-08-01T13:22:46;3.13;;;2.60;;
1785;SDS011;890;48.158;11.540;2023-08-01T13:25:14;3.03;;;2.30;;
1785;SDS011;890;48.158;11.540;2023-08-01T13:27:40;2.10;;;1.90;;
1785;SDS011;890;48.158;11.540;2023-08-01T13:30:05;2.70;;;2.10;;
1785;SDS011;890;48.158;11.540;2023-08-01T13:32:32;2.93;;;2.37;;
1785;SDS011;890;48.158;11.540;2023-08-01T13:34:57;2.50;;;2.30;;
1785;SDS011;890;48.158;11.540;2023-08-01T13:37:23;4.37;;;3.07;;
1785;SDS011;890;48.158;11.540;2023-08-01T13:39:49;3.57;;;2.60;;
1785;SDS011;890;48.158;11.540;2023-08-01T13:42:14;2.80;;;2.23;;
1785;SDS011;890;48.158;11.540;2023-08-01T13:44:40;3.47;;;2.10;;
1785;SDS011;890;48.158;11.540;2023-08-01T13:47:06;5.47;;;2.50;;
1785;SDS011;890;48.158;11.540;2023-08-01T13:49:32;3.37;;;2.30;;
1785;SDS011;890;48.158;11.540;2023-08-01T13:51:58;3.43;;;2.70;;
1785;SDS011;890;48.158;11.540;2023-08-01T13:54:25;3.43;;;2.63;;
1785;SDS011;890;48.158;11.540;2023-08-01T13:56:51;4.37;;;2.70;;
1785;SDS011;890;48.158;11.540;2023-08-01T13:59:18;4.10;;;2.80;;
1785;SDS011;890;48.158;11.540;2023-08-01T14:01:44;4.37;;;2.87;;
1785;SDS011;890;48.158;11.540;2023-08-01T14:04:10;2.80;;;2.17;;
1785;SDS011;890;48.158;11.540;2023-08-01T14:06:35;2.80;;;2.10;;
1785;SDS011;890;48.158;11.540;2023-08-01T14:09:01;2.90;;;2.60;;
1785;SDS011;890;48.158;11.540;2023-08-01T14:11:26;3.53;;;2.33;;
1785;SDS011;890;48.158;11.540;2023-08-01T14:13:52;3.70;;;2.50;;
1785;SDS011;890;48.158;11.540;2023-08-01T14:16:18;3.77;;;2.97;;
1785;SDS011;890;48.158;11.540;2023-08-01T14:18:43;4.07;;;3.27;;
1785;SDS011;890;48.158;11.540;2023-08-01T14:21:09;4.77;;;3.13;;
1785;SDS011;890;48.158;11.540;2023-08-01T14:23:35;3.17;;;2.70;;
1785;SDS011;890;48.158;11.540;2023-08-01T14:26:03;3.63;;;3.03;;
1785;SDS011;890;48.158;11.540;2023-08-01T14:28:28;6.63;;;2.97;;
1785;SDS011;890;48.158;11.540;2023-08-01T14:30:54;3.23;;;2.60;;
1785;SDS011;890;48.158;11.540;2023-08-01T14:33:20;2.50;;;1.77;;
1785;SDS011;890;48.158;11.540;2023-08-01T14:35:46;3.13;;;2.20;;
1785;SDS011;890;48.158;11.540;2023-08-01T14:38:11;2.87;;;1.70;;
1785;SDS011;890;48.158;11.540;2023-08-01T14:40:37;1.70;;;1.30;;
1785;SDS011;890;48.158;11.540;2023-08-01T14:43:04;2.23;;;1.60;;
1785;SDS011;890;48.158;11.540;2023-08-01T14:45:30;1.73;;;1.43;;
1785;SDS011;890;48.158;11.540;2023-08-01T14:47:55;1.87;;;1.67;;
1785;SDS011;890;48.158;11.540;2023-08-01T14:50:21;2.10;;;1.47;;
1785;SDS011;890;48.158;11.540;2023-08-01T14:52:47;3.73;;;1.57;;
1785;SDS011;890;48.158;11.540;2023-08-01T14:55:12;3.10;;;1.70;;
1785;SDS011;890;48.158;11.540;2023-08-01T14:57:38;3.47;;;1.60;;
1785;SDS011;890;48.158;11.540;2023-08-01T15:00:04;2.20;;;1.57;;
1785;SDS011;890;48.158;11.540;2023-08-01T15:02:30;2.50;;;1.70;;
1785;SDS011;890;48.158;11.540;2023-08-01T15:04:56;2.80;;;1.93;;
1785;SDS011;890;48.158;11.540;2023-08-01T15:07:22;2.70;;;1.93;;
1785;SDS011;890;48.158;11.540;2023-08-01T15:09:49;2.77;;;2.10;;
1785;SDS011;890;48.158;11.540;2023-08-01T15:12:18;2.67;;;1.80;;
1785;SDS011;890;48.158;11.540;2023-08-01T15:14:55;4.33;;;2.07;;
1785;SDS011;890;48.158;11.540;2023-08-01T15:17:21;3.47;;;2.37;;
1785;SDS011;890;48.158;11.540;2023-08-01T15:19:48;2.60;;;1.73;;